Time;durP1;ratioP1;P1;durP2;ratioP2;P2;SDS_P1;SDS_P2;PMS_P1;PMS_P2;Temp;Humidity;BMP_temperature;BMP_pressure;BME280_temperature;BME280_humidity;BME280_pressure;Samples;Min_cycle;Max_cycle;Signal;HPM_P1;HPM_P2
2023/02/24 00:02:14;;;;;;;8.20;5.90;;;;;;;5.80;48.94;102461.54;106829;1271;22521;-58
2023/02/24 00:04:44;;;;;;;8.00;6.40;;;;;;;5.85;48.91;102452.20;106313;1268;1002914;-58
2023/02/24 00:07:12;;;;;;;9.90;6.40;;;;;;;5.90;48.44;102450.45;107011;1268;25393;-58
2023/02/24 00:09:43;;;;;;;9.20;6.50;;;;;;;5.94;48.40;102448.30;106325;1268;1003787;-58
2023/02/24 00:12:13;;;;;;;8.50;6.80;;;;;;;5.98;48.52;102439.77;107032;1268;25406;-58
2023/02/24 00:14:47;;;;;;;10.30;7.60;;;;;;;5.99;48.38;102433.44;106987;1268;25345;-58
2023/02/24 00:17:15;;;;;;;9.70;6.80;;;;;;;6.00;48.64;102427.24;107032;1268;25386;-57
2023/02/24 00:19:45;;;;;;;8.20;6.60;;;;;;;6.03;48.72;102423.02;107045;1268;25408;-58
2023/02/24 00:22:13;;;;;;;9.50;6.40;;;;;;;6.04;49.06;102420.63;106979;1268;22644;-58
2023/02/24 00:24:43;;;;;;;7.90;6.40;;;;;;;6.04;49.06;102417.70;106841;1268;25365;-59
2023/02/24 00:27:11;;;;;;;9.00;6.70;;;;;;;6.02;48.98;102413.02;106131;1272;1002924;-58
2023/02/24 00:29:44;;;;;;;7.80;6.30;;;;;;;6.00;48.88;102403.83;106518;1275;25348;-56
2023/02/24 00:32:13;;;;;;;8.80;6.30;;;;;;;5.99;48.60;102397.95;106847;1268;23865;-57
2023/02/24 00:34:43;;;;;;;11.30;6.10;;;;;;;5.96;48.51;102396.16;106781;1268;22543;-57
2023/02/24 00:37:14;;;;;;;8.40;6.80;;;;;;;5.94;48.60;102393.00;106488;1271;25363;-58
2023/02/24 00:39:46;;;;;;;11.50;6.20;;;;;;;5.93;48.88;102388.32;106716;1271;25366;-58
2023/02/24 00:42:16;;;;;;;7.10;5.60;;;;;;;5.93;48.95;102381.62;106808;1268;25377;-58
2023/02/24 00:44:45;;;;;;;8.80;5.60;;;;;;;5.94;49.00;102379.40;106531;1269;25416;-58
2023/02/24 00:47:15;;;;;;;12.80;6.40;;;;;;;5.97;48.91;102375.18;106251;1268;1003050;-59
2023/02/24 00:49:44;;;;;;;8.60;5.80;;;;;;;6.02;48.83;102372.71;106771;1269;22645;-58
2023/02/24 00:52:18;;;;;;;7.60;6.30;;;;;;;6.06;49.16;102371.75;107038;1268;25338;-58
2023/02/24 00:54:47;;;;;;;8.60;6.60;;;;;;;6.08;49.03;102362.67;107003;1268;22522;-58
2023/02/24 00:57:20;;;;;;;10.90;6.30;;;;;;;6.10;49.20;102356.86;107017;1268;22643;-58
2023/02/24 00:59:53;;;;;;;9.20;6.80;;;;;;;6.10;49.16;102348.06;106013;1275;1002389;-58
2023/02/24 01:02:22;;;;;;;8.80;5.80;;;;;;;6.09;48.99;102358.05;106391;1268;1003553;-58
2023/02/24 01:04:51;;;;;;;9.80;6.70;;;;;;;6.08;48.97;102354.73;107082;1268;25359;-59
2023/02/24 01:07:20;;;;;;;8.20;6.30;;;;;;;6.06;49.42;102353.31;107121;1268;23869;-57
2023/02/24 01:09:49;;;;;;;7.80;6.10;;;;;;;6.04;49.49;102341.73;106991;1275;22519;-58
2023/02/24 01:14:51;;;;;;;9.10;6.00;;;;;;;6.01;49.34;102330.30;107013;1252;25355;-58
2023/02/24 01:17:20;;;;;;;9.10;4.90;;;;;;;5.99;49.50;102327.67;107022;1268;22659;-57
2023/02/24 01:19:49;;;;;;;7.30;4.90;;;;;;;6.00;49.75;102325.10;106810;1271;22659;-58
2023/02/24 01:22:18;;;;;;;9.60;6.40;;;;;;;6.03;49.85;102322.75;106778;1271;22536;-58
2023/02/24 01:24:47;;;;;;;6.10;4.90;;;;;;;6.07;49.92;102322.00;106302;1268;1003458;-57
2023/02/24 01:27:17;;;;;;;10.40;5.60;;;;;;;6.13;49.83;102317.14;107008;1268;23895;-58
2023/02/24 01:29:48;;;;;;;;;;;;;;;6.19;49.70;102305.52;106968;1269;26478;-57
2023/02/24 01:32:18;;;;;;;8.00;5.50;;;;;;;6.23;49.86;102303.70;106969;1268;22636;-58
2023/02/24 01:34:52;;;;;;;6.70;5.40;;;;;;;6.25;49.57;102308.77;106819;1270;25522;-59
2023/02/24 01:37:21;;;;;;;6.50;4.80;;;;;;;6.26;49.49;102305.35;106697;1269;25379;-58
2023/02/24 01:39:49;;;;;;;7.60;5.40;;;;;;;6.28;49.66;102303.33;107112;1268;25246;-57
2023/02/24 01:42:19;;;;;;;8.10;5.90;;;;;;;6.29;49.78;102308.85;106325;1269;1003527;-58
2023/02/24 01:44:50;;;;;;;9.40;6.00;;;;;;;6.29;49.83;102308.86;106297;1268;1002908;-58
2023/02/24 01:47:22;;;;;;;8.80;5.30;;;;;;;6.30;49.91;102310.77;106092;1268;1003522;-58
2023/02/24 01:49:51;;;;;;;12.40;6.00;;;;;;;6.29;50.14;102308.00;106916;1273;25370;-58
2023/02/24 01:52:29;;;;;;;8.70;5.00;;;;;;;6.30;50.00;102292.34;106826;1268;22516;-58
2023/02/24 01:55:18;;;;;;;8.30;5.30;;;;;;;6.32;50.21;102293.23;106241;1269;1003369;-57
2023/02/24 01:57:49;;;;;;;8.50;5.50;;;;;;;6.35;50.15;102287.95;106848;1269;22525;-58
2023/02/24 02:00:31;;;;;;;8.10;5.90;;;;;;;6.38;50.08;102285.05;106867;1269;24314;-58
2023/02/24 02:03:02;;;;;;;8.50;6.00;;;;;;;6.43;50.10;102288.96;107114;1253;22535;-58
2023/02/24 02:05:31;;;;;;;8.80;5.70;;;;;;;6.47;50.13;102282.32;107086;1268;23870;-57
2023/02/24 02:08:02;;;;;;;9.20;6.20;;;;;;;6.50;50.30;102285.48;106955;1268;25456;-57
2023/02/24 02:10:32;;;;;;;11.20;5.40;;;;;;;6.53;50.51;102283.64;106987;1268;22761;-58
2023/02/24 02:13:03;;;;;;;;;;;;;;;6.54;50.37;102274.36;107067;1268;25376;-57
2023/02/24 02:15:36;;;;;;;9.90;5.30;;;;;;;6.55;50.39;102281.60;106339;1268;1002800;-58
2023/02/24 02:18:25;;;;;;;8.80;5.30;;;;;;;6.54;50.54;102275.23;107058;1268;22543;-57
2023/02/24 02:21:03;;;;;;;8.70;6.10;;;;;;;6.55;50.74;102274.36;107020;1268;23132;-58
2023/02/24 02:23:49;;;;;;;8.50;5.20;;;;;;;6.56;50.90;102276.46;107060;1269;23251;-58
2023/02/24 02:26:39;;;;;;;9.90;5.60;;;;;;;6.58;51.39;102273.39;107012;1271;22999;-58
2023/02/24 02:29:21;;;;;;;7.30;5.10;;;;;;;6.64;51.51;102268.67;106333;1268;1003119;-58
2023/02/24 02:32:07;;;;;;;;;;;;;;;6.70;51.55;102266.02;106335;1268;1003421;-58
2023/02/24 02:34:49;;;;;;;7.00;4.20;;;;;;;6.76;51.52;102263.36;106999;1268;25345;-58
2023/02/24 02:37:20;;;;;;;7.30;4.80;;;;;;;6.79;51.44;102258.08;106742;1269;24229;-58
2023/02/24 02:40:20;;;;;;;7.00;5.40;;;;;;;6.81;51.53;102251.39;106724;1271;23072;-59
2023/02/24 02:43:07;;;;;;;9.80;5.60;;;;;;;6.83;51.59;102245.73;106782;1270;22640;-58
2023/02/24 02:46:33;;;;;;;11.90;5.40;;;;;;;6.85;51.90;102244.73;106024;1271;1003378;-58
2023/02/24 02:49:15;;;;;;;9.40;4.50;;;;;;;6.88;52.33;102245.64;105931;1282;22634;-58
2023/02/24 02:52:04;;;;;;;8.50;4.90;;;;;;;6.91;52.32;102245.69;105814;1282;25378;-58
2023/02/24 02:54:53;;;;;;;6.80;4.90;;;;;;;6.95;52.51;102250.08;106032;1281;22553;-59
2023/02/24 02:57:26;;;;;;;5.90;4.90;;;;;;;7.02;52.49;102245.35;105922;1284;25483;-57
2023/02/24 03:00:00;;;;;;;11.30;5.70;;;;;;;7.08;52.32;102242.00;105740;1282;25378;-58
2023/02/24 03:02:30;;;;;;;7.80;4.90;;;;;;;7.12;52.51;102240.89;105106;1282;1003461;-58
2023/02/24 03:05:00;;;;;;;8.00;4.50;;;;;;;7.15;52.37;102242.13;105267;1281;1003340;-58
2023/02/24 03:07:33;;;;;;;10.10;5.20;;;;;;;7.16;52.38;102238.34;105800;1282;24397;-58
2023/02/24 03:10:09;;;;;;;12.90;4.50;;;;;;;7.17;52.43;102233.36;105472;1284;1003636;-57
2023/02/24 03:12:38;;;;;;;11.20;5.60;;;;;;;7.17;52.62;102226.29;106056;1281;24266;-58
2023/02/24 03:15:09;;;;;;;9.10;4.70;;;;;;;7.18;52.51;102222.17;105981;1279;22535;-58
2023/02/24 03:17:39;;;;;;;5.90;3.80;;;;;;;7.20;52.84;102215.28;106006;1283;22591;-58
2023/02/24 03:20:35;;;;;;;7.30;4.50;;;;;;;7.23;53.09;102217.41;105945;1284;22540;-58
2023/02/24 03:23:10;;;;;;;9.30;4.10;;;;;;;7.28;52.88;102216.27;106230;1280;24305;-59
2023/02/24 03:26:15;;;;;;;8.50;4.40;;;;;;;7.33;52.67;102211.86;106442;1269;22536;-59
2023/02/24 03:29:12;;;;;;;7.50;4.40;;;;;;;7.38;52.57;102209.33;106580;1275;25811;-58
2023/02/24 03:31:52;;;;;;;7.00;5.00;;;;;;;7.41;52.93;102205.59;106665;1275;27184;-59
2023/02/24 03:34:55;;;;;;;10.30;4.90;;;;;;;7.42;53.10;102201.80;106522;1276;23923;-59
2023/02/24 03:37:26;;;;;;;7.30;4.90;;;;;;;7.41;53.22;102200.23;106626;1275;22605;-59
2023/02/24 03:39:57;;;;;;;5.90;4.20;;;;;;;7.40;53.37;102196.23;106567;1275;23359;-58
2023/02/24 03:42:29;;;;;;;7.20;3.70;;;;;;;7.40;53.30;102194.52;106711;1275;24209;-58
2023/02/24 03:44:57;;;;;;;10.10;4.50;;;;;;;7.41;53.62;102191.92;106686;1274;23968;-58
2023/02/24 03:47:26;;;;;;;8.50;5.10;;;;;;;7.43;53.70;102185.06;106744;1262;22764;-58
2023/02/24 03:49:54;;;;;;;9.70;4.30;;;;;;;7.47;53.48;102178.38;106643;1273;22546;-58
2023/02/24 03:52:31;;;;;;;7.80;4.40;;;;;;;7.50;53.32;102175.66;106377;1273;25322;-59
2023/02/24 03:55:06;;;;;;;10.90;4.50;;;;;;;7.53;53.26;102175.20;106429;1280;22534;-58
2023/02/24 03:58:03;;;;;;;8.40;4.80;;;;;;;7.55;52.94;102164.85;106461;1278;25364;-59
2023/02/24 04:00:37;;;;;;;7.20;4.90;;;;;;;7.55;53.15;102158.65;106644;1273;25396;-59
2023/02/24 04:03:24;;;;;;;9.80;4.70;;;;;;;7.55;53.43;102155.02;106695;1275;22532;-58
2023/02/24 04:06:19;;;;;;;6.80;4.10;;;;;;;7.55;53.79;102153.97;106765;1269;22608;-58
2023/02/24 04:09:15;;;;;;;5.80;4.30;;;;;;;7.57;53.71;102151.08;107090;1269;22535;-58
2023/02/24 04:11:57;;;;;;;5.90;4.30;;;;;;;7.60;53.66;102143.67;106860;1269;22650;-58
2023/02/24 04:14:37;;;;;;;6.60;4.60;;;;;;;7.63;53.44;102137.50;107066;1268;25350;-59
2023/02/24 04:17:25;;;;;;;9.00;4.70;;;;;;;7.66;53.28;102135.98;107062;1268;25338;-58
2023/02/24 04:19:57;;;;;;;8.10;5.20;;;;;;;7.69;53.32;102129.11;107053;1271;22599;-58
2023/02/24 04:22:26;;;;;;;7.10;4.80;;;;;;;7.69;53.47;102129.63;105954;1269;1003344;-58
2023/02/24 04:24:58;;;;;;;6.10;4.40;;;;;;;7.71;53.41;102128.28;106721;1274;25348;-59
2023/02/24 04:27:27;;;;;;;8.00;4.40;;;;;;;7.69;53.67;102123.40;106181;1268;1002633;-59
2023/02/24 04:30:03;;;;;;;10.20;4.30;;;;;;;7.68;53.84;102117.88;107058;1268;25351;-59
2023/02/24 04:32:33;;;;;;;11.10;4.40;;;;;;;7.69;53.96;102112.36;107040;1269;22545;-58
2023/02/24 04:35:08;;;;;;;8.80;5.00;;;;;;;7.70;53.80;102110.64;106823;1273;25540;-58
2023/02/24 04:37:43;;;;;;;9.60;5.00;;;;;;;7.73;53.88;102109.46;106711;1269;24274;-59
2023/02/24 04:40:16;;;;;;;9.10;4.60;;;;;;;7.77;54.04;102110.90;107014;1269;25406;-58
2023/02/24 04:42:47;;;;;;;8.10;5.30;;;;;;;7.81;54.46;102111.80;106794;1269;25556;-59
2023/02/24 04:45:17;;;;;;;;;;;;;;;7.83;54.66;102102.83;107029;1269;22620;-59
2023/02/24 04:47:48;;;;;;;11.00;5.30;;;;;;;7.83;54.50;102102.48;107055;1267;25496;-58
2023/02/24 04:50:24;;;;;;;10.60;5.10;;;;;;;7.82;54.45;102098.52;106758;1274;24251;-58
2023/02/24 04:52:59;;;;;;;10.80;4.90;;;;;;;7.82;54.53;102088.84;106917;1269;26519;-58
2023/02/24 04:55:31;;;;;;;10.20;4.60;;;;;;;7.82;54.61;102083.30;106668;1274;22524;-58
2023/02/24 04:58:01;;;;;;;8.90;4.30;;;;;;;7.85;54.92;102086.10;106285;1269;1002880;-58
2023/02/24 05:00:34;;;;;;;6.20;4.00;;;;;;;7.89;55.07;102088.91;107052;1270;26614;-58
2023/02/24 05:03:03;;;;;;;10.40;5.60;;;;;;;7.93;55.18;102086.02;106969;1269;22573;-60
2023/02/24 05:05:32;;;;;;;16.40;5.70;;;;;;;7.97;55.34;102081.21;106354;1268;1002980;-57
2023/02/24 05:08:03;;;;;;;8.60;4.90;;;;;;;8.00;55.18;102080.23;107004;1268;24274;-58
2023/02/24 05:10:39;;;;;;;6.60;4.30;;;;;;;8.00;55.11;102074.52;106983;1268;24179;-58
2023/02/24 05:13:08;;;;;;;11.40;5.30;;;;;;;8.01;54.99;102075.22;107008;1268;22637;-58
2023/02/24 05:15:39;;;;;;;8.70;4.30;;;;;;;8.02;55.24;102073.84;107002;1268;25437;-58
2023/02/24 05:18:08;;;;;;;9.10;4.60;;;;;;;8.06;55.38;102078.36;105658;1268;1003750;-59
2023/02/24 05:23:38;;;;;;;7.30;5.00;;;;;;;8.15;55.66;102077.25;105714;1273;1003527;-59
2023/02/24 05:26:26;;;;;;;9.00;4.90;;;;;;;8.19;55.82;102069.50;106648;1268;25486;-58
2023/02/24 05:28:55;;;;;;;10.60;4.90;;;;;;;8.20;55.74;102065.89;106617;1275;22538;-58
2023/02/24 05:31:28;;;;;;;7.40;4.10;;;;;;;8.22;55.70;102063.48;106848;1271;25327;-58
2023/02/24 05:34:05;;;;;;;8.80;4.10;;;;;;;8.25;55.56;102062.30;106839;1269;24249;-58
2023/02/24 05:36:39;;;;;;;8.50;4.40;;;;;;;8.29;55.77;102059.41;106988;1261;22546;-59
2023/02/24 05:39:11;;;;;;;11.40;4.40;;;;;;;8.34;55.62;102053.57;106994;1269;25503;-58
2023/02/24 05:41:41;;;;;;;9.20;4.50;;;;;;;8.39;55.71;102053.45;107049;1271;22534;-58
2023/02/24 05:44:22;;;;;;;5.70;3.90;;;;;;;8.44;55.55;102055.38;107042;1268;25427;-58
2023/02/24 05:46:57;;;;;;;9.10;5.00;;;;;;;8.46;55.52;102051.95;107043;1268;22645;-57
2023/02/24 05:49:31;;;;;;;9.70;4.70;;;;;;;8.47;55.51;102053.17;107033;1268;24196;-57
2023/02/24 05:52:06;;;;;;;9.10;4.20;;;;;;;8.49;55.91;102049.21;107066;1269;22526;-58
2023/02/24 05:54:41;;;;;;;8.90;3.70;;;;;;;8.50;56.14;102047.31;107030;1269;26683;-58
2023/02/24 05:57:11;;;;;;;15.10;5.10;;;;;;;8.53;56.06;102045.42;107114;1268;22537;-58
2023/02/24 05:59:41;;;;;;;8.30;4.00;;;;;;;8.58;56.22;102045.98;106500;1269;24243;-58
2023/02/24 06:02:13;;;;;;;9.50;4.00;;;;;;;8.63;56.10;102047.23;106120;1253;1002852;-58
2023/02/24 06:04:52;;;;;;;13.50;4.50;;;;;;;8.66;56.30;102046.55;106991;1253;22740;-59
2023/02/24 06:07:23;;;;;;;6.10;3.40;;;;;;;8.68;56.27;102045.02;106217;1260;1002849;-57
2023/02/24 06:09:57;;;;;;;9.70;3.20;;;;;;;8.71;56.32;102043.30;106953;1269;25425;-58
2023/02/24 06:12:28;;;;;;;6.90;3.20;;;;;;;8.72;56.39;102040.54;107038;1269;22631;-58
2023/02/24 06:15:06;;;;;;;8.20;3.40;;;;;;;8.76;56.56;102041.27;106955;1269;25360;-58
2023/02/24 06:17:35;;;;;;;10.70;3.70;;;;;;;8.81;56.79;102043.54;107055;1268;24234;-58
2023/02/24 06:20:13;;;;;;;5.60;3.70;;;;;;;8.86;56.78;102036.48;107071;1271;22537;-59
2023/02/24 06:22:42;;;;;;;5.40;2.90;;;;;;;8.88;56.76;102034.58;106836;1276;23879;-57
2023/02/24 06:25:14;;;;;;;9.80;3.20;;;;;;;8.89;56.73;102030.77;107033;1271;25422;-58
2023/02/24 06:27:43;;;;;;;11.50;3.40;;;;;;;8.90;56.91;102029.05;107086;1260;25338;-58
2023/02/24 06:30:14;;;;;;;7.30;3.40;;;;;;;8.91;56.87;102025.60;106770;1275;25395;-59
2023/02/24 06:32:43;;;;;;;6.90;2.90;;;;;;;8.93;56.84;102020.77;107007;1269;25370;-58
2023/02/24 06:35:14;;;;;;;5.10;3.10;;;;;;;8.97;56.75;102023.04;106973;1271;25376;-58
2023/02/24 06:37:49;;;;;;;10.10;3.70;;;;;;;9.00;56.93;102013.18;107010;1271;25516;-59
2023/02/24 06:40:18;;;;;;;8.20;4.50;;;;;;;9.03;56.90;102006.98;107073;1271;25240;-59
2023/02/24 06:42:48;;;;;;;6.80;3.40;;;;;;;9.04;56.95;102005.06;106790;1273;22743;-58
2023/02/24 06:45:17;;;;;;;12.00;3.30;;;;;;;9.06;56.79;102005.25;106996;1270;22536;-58
2023/02/24 06:47:47;;;;;;;10.50;3.50;;;;;;;9.08;56.97;102005.77;107053;1269;24350;-59
2023/02/24 06:50:19;;;;;;;11.20;4.40;;;;;;;9.10;57.08;101997.98;106862;1271;25373;-58
2023/02/24 06:52:48;;;;;;;;;;;;;;;9.14;57.14;101997.48;107122;1271;24223;-59
2023/02/24 06:55:26;;;;;;;7.70;3.40;;;;;;;9.18;57.02;101991.44;106744;1263;25475;-58
2023/02/24 06:57:57;;;;;;;6.70;3.60;;;;;;;9.18;57.01;101983.66;107005;1269;22536;-58
2023/02/24 07:00:35;;;;;;;6.50;3.70;;;;;;;9.18;56.93;101975.86;107007;1269;25348;-58
2023/02/24 07:03:13;;;;;;;6.90;3.30;;;;;;;9.19;56.88;101973.96;107038;1269;22527;-57
2023/02/24 07:05:53;;;;;;;10.50;3.90;;;;;;;9.20;56.85;101969.45;107053;1268;25521;-58
2023/02/24 07:08:23;;;;;;;10.40;3.50;;;;;;;9.21;56.78;101966.35;106757;1269;22604;-58
2023/02/24 07:10:55;;;;;;;8.60;3.70;;;;;;;9.24;56.89;101964.29;106962;1269;24240;-58
2023/02/24 07:13:25;;;;;;;8.00;3.40;;;;;;;9.26;56.70;101962.73;106265;1268;1002902;-58
2023/02/24 07:16:06;;;;;;;6.50;4.10;;;;;;;9.26;56.16;101962.73;106779;1268;25466;-58
2023/02/24 07:18:35;;;;;;;10.00;4.00;;;;;;;9.24;56.11;101963.59;106090;1269;1003030;-58
2023/02/24 07:21:10;;;;;;;11.90;3.50;;;;;;;9.21;56.12;101963.92;106961;1272;24234;-60
2023/02/24 07:23:39;;;;;;;7.40;3.00;;;;;;;9.20;56.13;101959.42;106839;1271;22533;-58
2023/02/24 07:26:12;;;;;;;8.20;3.30;;;;;;;9.20;56.37;101962.71;106918;1268;22753;-58
2023/02/24 07:28:42;;;;;;;13.90;4.10;;;;;;;9.20;56.20;101962.02;106968;1269;22537;-58
2023/02/24 07:31:12;;;;;;;7.70;3.40;;;;;;;9.23;56.15;101954.41;106900;1269;22510;-58
2023/02/24 07:33:43;;;;;;;8.20;3.50;;;;;;;9.25;56.16;101956.67;106225;1269;1002867;-58
2023/02/24 07:36:13;;;;;;;8.30;3.70;;;;;;;9.26;55.86;101957.20;106918;1274;22501;-58
2023/02/24 07:38:43;;;;;;;6.60;4.10;;;;;;;9.27;55.97;101956.86;106426;1272;25361;-57
2023/02/24 07:41:14;;;;;;;9.70;3.60;;;;;;;9.27;56.26;101955.30;106633;1268;25348;-59
2023/02/24 07:43:42;;;;;;;10.70;3.80;;;;;;;9.27;56.01;101955.13;106714;1268;22657;-57
2023/02/24 07:46:13;;;;;;;10.30;3.40;;;;;;;9.27;56.17;101956.34;106637;1268;22653;-57
2023/02/24 07:48:41;;;;;;;8.00;3.80;;;;;;;9.27;56.09;101953.39;106649;1268;25358;-57
2023/02/24 07:51:14;;;;;;;9.00;4.40;;;;;;;9.29;55.99;101953.21;106656;1269;25413;-58
2023/02/24 07:53:51;;;;;;;10.00;5.00;;;;;;;9.32;55.47;101950.45;106816;1269;25474;-57
2023/02/24 07:56:25;;;;;;;7.10;3.80;;;;;;;9.32;55.16;101953.91;106192;1268;1002870;-57
2023/02/24 07:59:00;;;;;;;9.10;3.80;;;;;;;9.31;55.32;101951.67;106972;1268;22546;-58
2023/02/24 08:01:37;;;;;;;7.70;3.60;;;;;;;9.31;55.20;101950.30;106910;1275;22530;-58
2023/02/24 08:04:07;;;;;;;8.20;3.10;;;;;;;9.32;54.88;101950.10;106928;1268;24246;-58
2023/02/24 08:06:37;;;;;;;10.70;4.40;;;;;;;9.33;54.84;101948.04;106884;1269;22528;-58
2023/02/24 08:09:17;;;;;;;13.60;4.00;;;;;;;9.36;54.97;101948.55;106758;1275;22484;-58
2023/02/24 08:11:53;;;;;;;9.40;3.80;;;;;;;9.40;54.96;101947.00;106952;1270;25351;-58
2023/02/24 08:14:24;;;;;;;11.20;4.20;;;;;;;9.43;54.89;101942.86;106253;1268;1002919;-58
2023/02/24 08:17:00;;;;;;;8.10;4.30;;;;;;;9.44;54.90;101943.38;106857;1276;22998;-58
2023/02/24 08:19:32;;;;;;;9.60;4.60;;;;;;;9.44;54.75;101943.72;106873;1268;25466;-58
2023/02/24 08:22:18;;;;;;;14.60;4.30;;;;;;;9.43;54.88;101943.39;106925;1269;24277;-59
2023/02/24 08:24:54;;;;;;;8.50;4.00;;;;;;;9.44;55.05;101944.41;106959;1268;26646;-59
2023/02/24 08:27:23;;;;;;;11.70;4.00;;;;;;;9.44;55.24;101940.61;107001;1268;24271;-59
2023/02/24 08:30:00;;;;;;;11.30;4.00;;;;;;;9.45;55.38;101935.40;106781;1275;24199;-58
2023/02/24 08:32:36;;;;;;;11.80;4.90;;;;;;;9.46;55.13;101938.36;106760;1275;25358;-57
2023/02/24 08:35:16;;;;;;;7.50;3.80;;;;;;;9.48;55.09;101936.97;106771;1270;22550;-57
2023/02/24 08:37:47;;;;;;;11.60;4.80;;;;;;;9.48;54.88;101935.40;106189;1272;24418;-58
2023/02/24 08:43:29;;;;;;;11.20;4.30;;;;;;;9.44;54.72;101928.30;106608;1269;25376;-58
2023/02/24 08:46:11;;;;;;;7.80;3.80;;;;;;;9.43;54.66;101925.55;106560;1268;24357;-59
2023/02/24 08:48:46;;;;;;;10.80;4.40;;;;;;;9.43;54.51;101922.59;106827;1269;23313;-58
2023/02/24 08:51:21;;;;;;;11.70;4.70;;;;;;;9.43;54.48;101917.91;106895;1269;22727;-59
2023/02/24 08:53:54;;;;;;;7.90;4.20;;;;;;;9.45;54.78;101919.30;106767;1275;24367;-58
2023/02/24 08:56:33;;;;;;;16.30;5.60;;;;;;;9.48;54.92;101915.15;106856;1269;26495;-59
2023/02/24 08:59:06;;;;;;;13.00;5.00;;;;;;;9.51;54.97;101915.85;106787;1269;22546;-59
2023/02/24 09:01:38;;;;;;;10.60;5.00;;;;;;;9.51;55.24;101915.50;106161;1269;1003469;-58
2023/02/24 09:04:09;;;;;;;11.40;4.20;;;;;;;9.53;55.16;101912.55;106954;1269;22540;-59
2023/02/24 09:06:38;;;;;;;12.10;4.60;;;;;;;9.55;55.41;101908.75;106869;1273;22668;-58
2023/02/24 09:09:16;;;;;;;11.40;4.40;;;;;;;9.57;55.61;101908.92;107039;1268;22573;-58
2023/02/24 09:11:54;;;;;;;11.10;4.50;;;;;;;9.62;55.61;101906.32;107029;1268;26479;-58
2023/02/24 09:14:27;;;;;;;8.60;4.40;;;;;;;9.65;55.43;101902.52;106296;1261;1002967;-58
2023/02/24 09:17:09;;;;;;;10.30;5.20;;;;;;;9.65;55.21;101906.50;106276;1268;1002890;-58
2023/02/24 09:22:30;;;;;;;7.60;4.20;;;;;;;9.59;55.15;101898.87;107004;1269;22534;-58
2023/02/24 09:25:16;;;;;;;8.90;4.00;;;;;;;9.56;55.26;101891.08;107001;1268;24471;-58
2023/02/24 09:28:06;;;;;;;10.30;3.90;;;;;;;9.55;55.53;101892.65;107063;1271;25420;-58
2023/02/24 09:31:03;;;;;;;8.50;4.00;;;;;;;9.55;55.36;101890.92;107112;1269;24283;-58
2023/02/24 09:33:37;;;;;;;10.60;4.50;;;;;;;9.55;55.27;101886.92;106192;1269;1003514;-58
2023/02/24 09:36:18;;;;;;;15.40;4.70;;;;;;;9.56;55.08;101884.49;106744;1269;22537;-58
2023/02/24 09:41:55;;;;;;;9.70;4.70;;;;;;;9.60;55.02;101881.04;106681;1275;25366;-58
2023/02/24 09:44:26;;;;;;;15.90;4.60;;;;;;;9.58;55.08;101873.92;106593;1275;25352;-58
2023/02/24 09:47:07;;;;;;;12.90;4.70;;;;;;;9.59;55.18;101873.06;106732;1269;23893;-58
2023/02/24 09:49:47;;;;;;;;;;;;;;;9.59;55.24;101865.78;106293;1270;22502;-58
2023/02/24 09:52:17;;;;;;;12.50;4.60;;;;;;;9.61;54.94;101865.27;105990;1274;1003034;-58
2023/02/24 09:55:17;;;;;;;17.00;5.10;;;;;;;9.63;55.00;101861.45;106592;1273;22667;-58
2023/02/24 10:01:19;;;;;;;14.20;4.60;;;;;;;9.66;54.81;101846.39;106750;1272;22565;-58
2023/02/24 10:04:17;;;;;;;8.00;4.30;;;;;;;9.66;55.04;101838.25;107085;1269;25359;-58
2023/02/24 10:06:50;;;;;;;9.90;4.40;;;;;;;9.67;54.96;101833.05;107023;1269;24249;-58
2023/02/24 10:09:37;;;;;;;10.90;4.70;;;;;;;9.68;55.09;101831.15;106995;1272;25376;-58
2023/02/24 10:12:15;;;;;;;17.00;6.40;;;;;;;9.68;55.23;101825.43;107094;1271;25494;-58
2023/02/24 10:14:51;;;;;;;12.80;4.60;;;;;;;9.69;55.26;101823.00;107076;1271;25290;-58
2023/02/24 10:17:22;;;;;;;8.70;4.40;;;;;;;9.71;55.15;101818.14;107023;1271;24295;-58
2023/02/24 10:20:38;;;;;;;8.80;4.10;;;;;;;9.72;54.97;101812.25;106956;1272;25501;-58
2023/02/24 10:23:31;;;;;;;10.60;4.80;;;;;;;9.67;54.84;101802.55;106967;1270;24272;-58
2023/02/24 10:26:30;;;;;;;8.40;4.30;;;;;;;9.66;54.97;101795.63;107048;1268;25366;-58
2023/02/24 10:29:17;;;;;;;13.00;4.80;;;;;;;9.64;54.77;101786.27;106816;1275;25328;-57
2023/02/24 10:31:56;;;;;;;11.50;4.50;;;;;;;9.62;54.93;101784.20;107110;1269;22661;-57
2023/02/24 10:34:30;;;;;;;12.90;4.60;;;;;;;9.61;55.08;101775.02;107084;1271;22751;-57
2023/02/24 10:37:10;;;;;;;11.60;5.00;;;;;;;9.62;55.58;101767.56;106239;1270;1003110;-57
2023/02/24 10:39:59;;;;;;;16.90;5.20;;;;;;;9.64;55.42;101757.34;106818;1275;25380;-58
2023/02/24 10:42:31;;;;;;;10.90;5.20;;;;;;;9.70;55.48;101752.48;106290;1269;1003034;-57
2023/02/24 10:45:10;;;;;;;15.40;4.90;;;;;;;9.73;55.57;101746.40;106380;1268;1002829;-58
2023/02/24 10:47:57;;;;;;;8.70;4.20;;;;;;;9.75;55.36;101735.65;107177;1268;25372;-58
2023/02/24 10:50:42;;;;;;;10.40;4.40;;;;;;;9.76;55.28;101729.59;107057;1271;25437;-58
2023/02/24 10:53:28;;;;;;;9.60;4.30;;;;;;;9.76;55.19;101726.30;107055;1269;25371;-58
2023/02/24 10:56:25;;;;;;;8.10;4.50;;;;;;;9.78;55.01;101718.66;106965;1271;23881;-58
2023/02/24 10:59:29;;;;;;;15.80;5.00;;;;;;;9.80;55.02;101718.48;107003;1269;22586;-58
2023/02/24 11:02:22;;;;;;;13.40;4.90;;;;;;;9.83;55.06;101708.60;106850;1268;25401;-57
2023/02/24 11:07:45;;;;;;;11.70;4.10;;;;;;;9.83;55.24;101705.30;107000;1269;25359;-58
2023/02/24 11:10:57;;;;;;;15.60;5.10;;;;;;;9.83;55.36;101692.65;106975;1268;25505;-58
2023/02/24 11:18:51;;;;;;;15.40;5.70;;;;;;;9.84;55.56;101679.83;106121;1275;1003021;-58
2023/02/24 11:21:22;;;;;;;14.20;6.10;;;;;;;9.86;55.59;101677.56;106807;1270;24267;-58
2023/02/24 11:23:58;;;;;;;14.50;5.00;;;;;;;9.85;55.62;101672.54;106975;1269;22990;-57
2023/02/24 11:26:45;;;;;;;15.50;5.00;;;;;;;9.83;55.75;101663.88;107057;1269;22534;-58
2023/02/24 11:30:00;;;;;;;10.10;4.10;;;;;;;9.82;55.85;101659.73;107019;1270;22556;-58
2023/02/24 11:32:32;;;;;;;9.80;4.30;;;;;;;9.83;55.86;101658.67;106337;1275;25410;-60
2023/02/24 11:35:21;;;;;;;7.80;4.20;;;;;;;9.84;55.89;101653.66;106345;1278;25347;-58
2023/02/24 11:38:16;;;;;;;9.90;4.50;;;;;;;9.88;55.83;101652.60;106355;1279;23879;-59
2023/02/24 11:40:47;;;;;;;19.00;6.80;;;;;;;9.88;55.61;101650.52;106329;1277;25333;-58
2023/02/24 11:43:20;;;;;;;15.40;5.30;;;;;;;9.87;55.75;101648.10;106414;1268;22547;-58
2023/02/24 11:45:57;;;;;;;14.40;5.20;;;;;;;9.84;55.60;101648.30;106431;1278;25411;-58
2023/02/24 11:48:35;;;;;;;15.50;5.80;;;;;;;9.84;55.97;101646.90;106338;1276;25458;-58
2023/02/24 11:51:06;;;;;;;9.30;4.30;;;;;;;9.83;55.77;101640.67;106377;1275;25335;-58
2023/02/24 11:53:52;;;;;;;15.40;4.70;;;;;;;9.82;55.65;101638.59;106350;1280;22656;-58
2023/02/24 11:56:28;;;;;;;15.10;5.50;;;;;;;9.82;55.78;101636.69;106518;1281;25416;-58
2023/02/24 11:59:11;;;;;;;14.80;4.70;;;;;;;9.82;55.93;101635.64;105592;1277;1003751;-58
2023/02/24 12:02:10;;;;;;;14.60;5.10;;;;;;;9.82;55.98;101630.29;106331;1277;25344;-58
2023/02/24 12:05:13;;;;;;;12.20;4.90;;;;;;;9.78;55.94;101628.21;106374;1275;25421;-59
2023/02/24 12:07:47;;;;;;;14.40;5.10;;;;;;;9.74;56.27;101620.97;106778;1273;24386;-59
2023/02/24 12:10:27;;;;;;;10.70;4.50;;;;;;;9.73;56.51;101617.84;106216;1268;1003760;-58
2023/02/24 12:13:10;;;;;;;16.70;4.70;;;;;;;9.72;56.69;101609.54;107086;1271;25363;-58
2023/02/24 12:16:01;;;;;;;13.90;5.90;;;;;;;9.72;56.83;101607.11;106840;1268;25369;-58
2023/02/24 12:18:38;;;;;;;17.40;6.10;;;;;;;9.70;56.64;101598.12;106740;1268;22528;-58
2023/02/24 12:21:08;;;;;;;12.20;4.80;;;;;;;9.67;56.73;101596.73;106883;1271;24503;-58
2023/02/24 12:23:40;;;;;;;20.00;5.40;;;;;;;9.64;56.88;101588.77;106840;1270;25356;-58
2023/02/24 12:26:14;;;;;;;21.10;5.70;;;;;;;9.62;57.05;101583.42;107022;1270;22644;-58
2023/02/24 12:29:14;;;;;;;11.20;4.70;;;;;;;9.59;57.30;101580.48;107042;1271;25331;-58
2023/02/24 12:32:14;;;;;;;13.00;5.20;;;;;;;9.58;57.42;101575.99;106991;1268;22787;-59